Time;durP1;ratioP1;P1;durP2;ratioP2;P2;SDS_P1;SDS_P2;PMS_P1;PMS_P2;Temp;Humidity;BMP_temperature;BMP_pressure;BME280_temperature;BME280_humidity;BME280_pressure;Samples;Min_cycle;Max_cycle;Signal;HPM_P1;HPM_P2
2023/10/21 00:00:35;;;;;;;2.20;1.50;;;;;;;;;;5152249;27;20964;-72
2023/10/21 00:03:02;;;;;;;2.40;1.60;;;;;;;;;;5149334;27;20439;-72
2023/10/21 00:05:29;;;;;;;2.33;1.70;;;;;;;;;;5149201;27;20455;-72
2023/10/21 00:07:56;;;;;;;1.97;1.43;;;;;;;;;;5149092;27;20467;-72
2023/10/21 00:10:25;;;;;;;1.80;1.70;;;;;;;;;;5152932;27;20499;-72
2023/10/21 00:12:52;;;;;;;2.37;1.50;;;;;;;;;;5154291;27;20463;-72
2023/10/21 00:15:19;;;;;;;1.50;1.20;;;;;;;;;;5145717;27;20456;-72
2023/10/21 00:17:46;;;;;;;2.10;1.53;;;;;;;;;;5153604;27;20451;-72
2023/10/21 00:20:14;;;;;;;2.00;1.57;;;;;;;;;;5148894;27;20536;-72
2023/10/21 00:22:41;;;;;;;3.10;1.40;;;;;;;;;;5149034;27;20476;-72
2023/10/21 00:25:09;;;;;;;2.43;2.00;;;;;;;;;;5146772;27;20444;-72
2023/10/21 00:27:38;;;;;;;3.60;1.67;;;;;;;;;;5145542;27;20827;-72
2023/10/21 00:30:05;;;;;;;4.40;3.00;;;;;;;;;;5147365;27;20455;-72
2023/10/21 00:32:33;;;;;;;3.67;2.53;;;;;;;;;;5130203;27;20471;-72
2023/10/21 00:35:00;;;;;;;2.87;1.80;;;;;;;;;;5147428;27;20443;-72
2023/10/21 00:37:28;;;;;;;1.80;1.60;;;;;;;;;;5145389;27;20447;-72
2023/10/21 00:39:57;;;;;;;1.80;1.60;;;;;;;;;;5129063;27;20984;-72
2023/10/21 00:42:24;;;;;;;1.77;1.30;;;;;;;;;;5133696;27;20464;-72
2023/10/21 00:44:53;;;;;;;1.90;1.40;;;;;;;;;;5153845;27;20444;-72
2023/10/21 00:47:20;;;;;;;2.10;1.60;;;;;;;;;;5145221;27;20445;-72
2023/10/21 00:49:49;;;;;;;1.77;1.10;;;;;;;;;;5145792;27;20444;-72
2023/10/21 00:52:16;;;;;;;2.27;1.60;;;;;;;;;;5148632;27;20495;-72
2023/10/21 00:54:43;;;;;;;2.23;1.50;;;;;;;;;;5148727;27;20546;-72
2023/10/21 00:57:11;;;;;;;2.93;1.90;;;;;;;;;;5145737;27;20954;-72
2023/10/21 00:59:41;;;;;;;2.43;1.63;;;;;;;;;;5144908;27;20463;-72
2023/10/21 01:02:13;;;;;;;8.27;2.60;;;;;;;;;;5147483;27;20521;-72
2023/10/21 01:04:40;;;;;;;2.83;2.30;;;;;;;;;;5148789;27;20448;-72
2023/10/21 01:07:15;;;;;;;2.93;2.33;;;;;;;;;;5145462;27;20866;-72
2023/10/21 01:09:42;;;;;;;2.57;1.93;;;;;;;;;;5145066;27;20485;-72
2023/10/21 01:12:11;;;;;;;2.23;1.80;;;;;;;;;;5135220;27;20617;-72
2023/10/21 01:14:38;;;;;;;2.50;2.13;;;;;;;;;;5151699;27;20447;-72
2023/10/21 01:17:05;;;;;;;4.10;2.03;;;;;;;;;;5146038;27;20950;-72
2023/10/21 01:19:34;;;;;;;2.73;2.10;;;;;;;;;;5138083;27;20440;-72
2023/10/21 01:22:01;;;;;;;2.80;2.17;;;;;;;;;;5148149;27;20985;-72
2023/10/21 01:24:30;;;;;;;2.83;2.27;;;;;;;;;;5156419;27;20452;-72
2023/10/21 01:26:57;;;;;;;2.20;2.00;;;;;;;;;;5148072;27;20844;-72
2023/10/21 01:29:24;;;;;;;2.30;2.10;;;;;;;;;;5147822;27;20454;-72
2023/10/21 01:31:52;;;;;;;3.30;1.70;;;;;;;;;;5147584;27;20496;-72
2023/10/21 01:34:19;;;;;;;3.33;2.30;;;;;;;;;;5148482;27;20452;-72
2023/10/21 01:36:47;;;;;;;3.00;2.17;;;;;;;;;;5148495;27;20456;-72
2023/10/21 01:39:14;;;;;;;2.17;1.50;;;;;;;;;;5152688;27;20468;-72
2023/10/21 01:41:43;;;;;;;2.20;1.60;;;;;;;;;;5151558;27;20467;-72
2023/10/21 01:44:10;;;;;;;2.57;2.00;;;;;;;;;;5147796;27;20991;-72
2023/10/21 01:46:37;;;;;;;2.00;1.60;;;;;;;;;;5147656;27;20456;-72
2023/10/21 01:49:04;;;;;;;1.80;1.70;;;;;;;;;;5156087;27;20847;-72
2023/10/21 01:51:31;;;;;;;2.00;1.80;;;;;;;;;;5146730;27;20488;-72
2023/10/21 01:53:59;;;;;;;3.00;1.67;;;;;;;;;;5146229;27;20946;-72
2023/10/21 01:56:28;;;;;;;2.90;2.50;;;;;;;;;;5148979;27;20448;-72
2023/10/21 01:58:58;;;;;;;4.40;2.57;;;;;;;;;;5146412;27;20444;-72
2023/10/21 02:01:27;;;;;;;8.10;2.23;;;;;;;;;;5132304;27;20501;-72
2023/10/21 02:03:56;;;;;;;3.83;2.80;;;;;;;;;;5152386;27;20475;-72
2023/10/21 02:06:23;;;;;;;8.33;4.23;;;;;;;;;;5143553;27;20531;-72
2023/10/21 02:08:50;;;;;;;6.73;5.20;;;;;;;;;;5143326;27;20461;-72
2023/10/21 02:11:21;;;;;;;8.23;5.47;;;;;;;;;;5146996;27;20492;-72
2023/10/21 02:13:48;;;;;;;8.80;4.83;;;;;;;;;;5147031;27;20501;-73
2023/10/21 02:16:20;;;;;;;6.57;4.37;;;;;;;;;;5148074;27;20798;-72
2023/10/21 02:18:47;;;;;;;5.93;3.87;;;;;;;;;;5147053;27;20488;-72
2023/10/21 02:21:14;;;;;;;6.30;4.20;;;;;;;;;;5143223;27;20469;-72
2023/10/21 02:23:41;;;;;;;5.23;3.50;;;;;;;;;;5143282;27;20509;-72
2023/10/21 02:26:09;;;;;;;3.40;2.50;;;;;;;;;;5145961;27;20527;-72
2023/10/21 02:28:38;;;;;;;5.13;2.80;;;;;;;;;;5155265;27;20937;-72
2023/10/21 02:31:05;;;;;;;3.60;2.23;;;;;;;;;;5144380;27;20494;-72
2023/10/21 02:33:34;;;;;;;3.10;2.53;;;;;;;;;;5142902;27;20453;-72
2023/10/21 02:36:02;;;;;;;2.57;1.70;;;;;;;;;;5144963;27;20945;-72
2023/10/21 02:38:29;;;;;;;4.80;2.17;;;;;;;;;;5146497;27;20447;-72
2023/10/21 02:40:56;;;;;;;2.73;2.40;;;;;;;;;;5146517;27;20471;-72
2023/10/21 02:43:24;;;;;;;4.10;2.03;;;;;;;;;;5146513;27;20451;-72
2023/10/21 02:45:51;;;;;;;4.00;2.43;;;;;;;;;;5146349;27;20933;-72
2023/10/21 02:48:20;;;;;;;2.43;2.23;;;;;;;;;;5142859;27;20794;-72
2023/10/21 02:50:49;;;;;;;2.47;2.17;;;;;;;;;;5150789;27;20447;-72
2023/10/21 02:53:16;;;;;;;3.07;2.27;;;;;;;;;;5146119;27;20510;-72
2023/10/21 02:55:43;;;;;;;2.50;2.10;;;;;;;;;;5146485;27;20448;-72
2023/10/21 02:58:11;;;;;;;2.10;1.90;;;;;;;;;;5146048;27;20460;-72
2023/10/21 03:00:40;;;;;;;2.00;1.70;;;;;;;;;;5147864;27;20460;-72
2023/10/21 03:03:08;;;;;;;2.40;2.20;;;;;;;;;;5150324;27;20550;-72
2023/10/21 03:05:35;;;;;;;2.57;2.00;;;;;;;;;;5142506;27;20451;-72
2023/10/21 03:08:05;;;;;;;2.53;1.73;;;;;;;;;;5151031;27;20447;-72
2023/10/21 03:10:32;;;;;;;1.90;1.63;;;;;;;;;;5142371;27;20453;-72
2023/10/21 03:12:59;;;;;;;3.63;2.43;;;;;;;;;;5150888;27;20856;-72
2023/10/21 03:15:26;;;;;;;2.10;1.90;;;;;;;;;;5147874;27;20459;-72
2023/10/21 03:17:54;;;;;;;6.10;2.10;;;;;;;;;;5146097;27;20445;-72
2023/10/21 03:20:22;;;;;;;2.17;1.97;;;;;;;;;;5150051;27;20824;-72
2023/10/21 03:22:49;;;;;;;2.57;2.30;;;;;;;;;;5150654;27;20499;-72
2023/10/21 03:25:18;;;;;;;3.43;2.20;;;;;;;;;;5142508;27;20847;-72
2023/10/21 03:27:48;;;;;;;4.13;2.40;;;;;;;;;;5150386;27;20460;-72
2023/10/21 03:30:16;;;;;;;7.00;3.27;;;;;;;;;;5145758;27;20511;-72
2023/10/21 03:32:43;;;;;;;4.77;3.53;;;;;;;;;;5154366;27;21064;-72
2023/10/21 03:35:11;;;;;;;6.20;4.47;;;;;;;;;;5145598;27;20455;-72
2023/10/21 03:37:38;;;;;;;5.10;3.60;;;;;;;;;;5154331;27;20543;-72
2023/10/21 03:40:07;;;;;;;6.47;3.90;;;;;;;;;;5145562;27;20955;-72
2023/10/21 03:42:35;;;;;;;5.30;2.77;;;;;;;;;;5145658;27;20471;-72
2023/10/21 03:45:04;;;;;;;3.40;2.80;;;;;;;;;;5125510;27;20448;-72
2023/10/21 03:47:31;;;;;;;3.43;2.40;;;;;;;;;;5147999;27;20455;-72
2023/10/21 03:49:58;;;;;;;4.27;2.27;;;;;;;;;;5153895;27;20459;-72
2023/10/21 03:52:25;;;;;;;2.73;2.40;;;;;;;;;;5153751;27;20491;-72
2023/10/21 03:54:53;;;;;;;3.13;1.93;;;;;;;;;;5145634;27;20452;-72
2023/10/21 03:57:20;;;;;;;3.43;2.03;;;;;;;;;;5145779;27;20947;-72
2023/10/21 03:59:48;;;;;;;2.20;2.00;;;;;;;;;;5145487;27;20439;-72
2023/10/21 04:02:17;;;;;;;2.70;2.50;;;;;;;;;;5145446;27;20483;-72
2023/10/21 04:04:45;;;;;;;3.73;2.27;;;;;;;;;;5127018;27;20539;-72
2023/10/21 04:07:12;;;;;;;2.10;1.87;;;;;;;;;;5144651;27;21045;-72
2023/10/21 04:09:39;;;;;;;2.60;2.03;;;;;;;;;;5145333;27;20451;-72
2023/10/21 04:12:07;;;;;;;2.57;2.30;;;;;;;;;;5151511;27;20499;-72
2023/10/21 04:14:34;;;;;;;2.90;2.07;;;;;;;;;;5148984;27;20444;-72
2023/10/21 04:17:03;;;;;;;4.00;2.50;;;;;;;;;;5152362;27;20440;-73
2023/10/21 04:19:30;;;;;;;3.00;2.53;;;;;;;;;;5126908;27;20483;-72
2023/10/21 04:21:58;;;;;;;4.23;3.40;;;;;;;;;;5146336;27;20471;-72
2023/10/21 04:24:25;;;;;;;4.27;3.10;;;;;;;;;;5152703;27;20977;-72
2023/10/21 04:26:53;;;;;;;4.97;3.70;;;;;;;;;;5145813;27;20531;-72
2023/10/21 04:29:22;;;;;;;3.87;2.80;;;;;;;;;;5148815;27;20475;-72
2023/10/21 04:31:49;;;;;;;3.63;3.30;;;;;;;;;;5157303;27;20532;-72
2023/10/21 04:34:18;;;;;;;3.23;2.80;;;;;;;;;;5148861;27;20491;-72
2023/10/21 04:36:45;;;;;;;3.60;3.10;;;;;;;;;;5148933;27;20440;-72
2023/10/21 04:39:14;;;;;;;9.80;3.50;;;;;;;;;;5157061;27;20471;-72
2023/10/21 04:41:41;;;;;;;4.90;2.70;;;;;;;;;;5148682;27;20980;-72
2023/10/21 04:44:08;;;;;;;3.57;3.23;;;;;;;;;;5130258;27;20538;-72
2023/10/21 04:46:37;;;;;;;6.90;3.30;;;;;;;;;;5148520;27;20938;-72
2023/10/21 04:49:04;;;;;;;3.87;3.00;;;;;;;;;;5155264;27;21040;-72
2023/10/21 04:51:33;;;;;;;3.63;3.03;;;;;;;;;;5150542;27;20467;-72
2023/10/21 04:54:00;;;;;;;4.03;3.73;;;;;;;;;;5155730;27;20447;-72
2023/10/21 04:56:27;;;;;;;3.27;2.97;;;;;;;;;;5150831;27;20448;-72
2023/10/21 04:58:54;;;;;;;3.70;3.40;;;;;;;;;;5148653;27;20471;-72
2023/10/21 05:01:21;;;;;;;4.00;3.60;;;;;;;;;;5148202;27;20474;-72
2023/10/21 05:03:49;;;;;;;4.47;3.03;;;;;;;;;;5148391;27;20450;-72
2023/10/21 05:06:16;;;;;;;4.07;3.67;;;;;;;;;;5148321;27;20463;-72
2023/10/21 05:08:45;;;;;;;4.90;4.40;;;;;;;;;;5156073;27;20525;-72
2023/10/21 05:11:13;;;;;;;4.80;3.90;;;;;;;;;;5137965;27;20518;-72
2023/10/21 05:13:42;;;;;;;7.30;4.50;;;;;;;;;;5149557;27;20497;-72
2023/10/21 05:16:11;;;;;;;4.17;3.07;;;;;;;;;;5146486;27;20980;-72
2023/10/21 05:18:39;;;;;;;4.23;3.80;;;;;;;;;;5148008;27;20505;-72
2023/10/21 05:21:08;;;;;;;3.80;3.50;;;;;;;;;;5147935;27;20850;-72
2023/10/21 05:23:35;;;;;;;6.97;4.27;;;;;;;;;;5156043;27;20460;-72
2023/10/21 05:26:04;;;;;;;6.23;3.20;;;;;;;;;;5153874;27;20539;-72
2023/10/21 05:28:32;;;;;;;4.10;3.73;;;;;;;;;;5144092;27;20993;-72
2023/10/21 05:30:58;;;;;;;4.10;3.40;;;;;;;;;;5145370;27;20463;-72
2023/10/21 05:33:25;;;;;;;5.60;5.10;;;;;;;;;;5147288;27;20519;-72
2023/10/21 05:35:53;;;;;;;6.03;5.53;;;;;;;;;;5147810;27;20459;-72
2023/10/21 05:38:20;;;;;;;6.67;5.60;;;;;;;;;;5154990;27;20918;-72
2023/10/21 05:40:47;;;;;;;6.73;6.03;;;;;;;;;;5146994;27;20539;-72
2023/10/21 05:43:16;;;;;;;7.60;5.13;;;;;;;;;;5154916;27;20459;-72
2023/10/21 05:45:43;;;;;;;8.33;6.83;;;;;;;;;;5147718;27;20883;-72
2023/10/21 05:48:11;;;;;;;13.37;10.20;;;;;;;;;;5144019;27;21603;-72
2023/10/21 05:50:40;;;;;;;9.47;8.57;;;;;;;;;;5145816;27;20448;-72
2023/10/21 05:53:07;;;;;;;21.67;12.50;;;;;;;;;;5145199;27;20587;-72
2023/10/21 05:55:35;;;;;;;34.37;22.13;;;;;;;;;;5145879;27;20460;-72
2023/10/21 05:58:03;;;;;;;58.30;34.80;;;;;;;;;;5145888;27;20448;-72
2023/10/21 06:00:31;;;;;;;52.20;32.20;;;;;;;;;;5154046;27;20451;-72
2023/10/21 06:02:58;;;;;;;51.30;32.27;;;;;;;;;;5144361;27;20455;-72
2023/10/21 06:05:26;;;;;;;21.30;15.20;;;;;;;;;;5142167;27;20821;-72
2023/10/21 06:07:54;;;;;;;19.33;13.87;;;;;;;;;;5135223;27;20464;-72
2023/10/21 06:10:21;;;;;;;10.00;8.73;;;;;;;;;;5141765;27;20452;-72
2023/10/21 06:12:48;;;;;;;13.97;12.53;;;;;;;;;;5141997;27;20566;-72
2023/10/21 06:15:16;;;;;;;29.40;20.53;;;;;;;;;;5144949;27;20448;-72
2023/10/21 06:17:45;;;;;;;34.30;21.60;;;;;;;;;;5146638;27;20543;-72
2023/10/21 06:20:13;;;;;;;17.13;11.07;;;;;;;;;;5144708;27;20474;-72
2023/10/21 06:22:41;;;;;;;33.80;23.37;;;;;;;;;;5148771;27;20465;-72
2023/10/21 06:25:10;;;;;;;13.67;10.07;;;;;;;;;;5145031;27;21011;-72
2023/10/21 06:27:38;;;;;;;13.80;11.00;;;;;;;;;;5145367;27;20503;-72
2023/10/21 06:30:09;;;;;;;13.60;10.13;;;;;;;;;;5145197;27;20444;-72
2023/10/21 06:32:37;;;;;;;11.20;6.10;;;;;;;;;;5153541;27;20547;-72
2023/10/21 06:35:07;;;;;;;14.80;4.10;;;;;;;;;;5145177;27;20486;-72
2023/10/21 06:37:34;;;;;;;4.23;3.13;;;;;;;;;;5145326;27;20816;-72
2023/10/21 06:40:01;;;;;;;3.00;2.70;;;;;;;;;;5153385;27;20448;-72
2023/10/21 06:42:28;;;;;;;5.00;3.97;;;;;;;;;;5145189;27;20474;-72
2023/10/21 06:44:56;;;;;;;5.57;4.67;;;;;;;;;;5145120;27;20447;-71
2023/10/21 06:47:23;;;;;;;6.00;4.80;;;;;;;;;;5162211;27;20507;-73
2023/10/21 06:49:50;;;;;;;4.83;3.43;;;;;;;;;;5153248;27;20450;-72
2023/10/21 06:52:20;;;;;;;7.07;3.40;;;;;;;;;;5145077;27;20490;-71
2023/10/21 06:54:47;;;;;;;4.43;3.50;;;;;;;;;;5144989;27;20499;-71
2023/10/21 06:57:20;;;;;;;4.03;3.63;;;;;;;;;;5149905;27;20564;-72
2023/10/21 06:59:47;;;;;;;4.43;3.63;;;;;;;;;;5141228;27;20449;-72
2023/10/21 07:02:17;;;;;;;4.10;3.33;;;;;;;;;;5144249;27;20463;-73
2023/10/21 07:04:44;;;;;;;4.00;3.67;;;;;;;;;;5144806;27;20452;-71
2023/10/21 07:07:11;;;;;;;4.17;3.50;;;;;;;;;;5144525;27;20460;-71
2023/10/21 07:09:40;;;;;;;8.47;6.27;;;;;;;;;;5153040;27;20788;-74
2023/10/21 07:12:07;;;;;;;4.40;4.00;;;;;;;;;;5144409;27;20558;-72
2023/10/21 07:14:35;;;;;;;5.83;4.80;;;;;;;;;;5152345;27;20491;-71
2023/10/21 07:17:02;;;;;;;5.13;3.93;;;;;;;;;;5144423;27;20504;-71
2023/10/21 07:19:31;;;;;;;4.00;3.43;;;;;;;;;;5144421;27;20822;-71
2023/10/21 07:21:58;;;;;;;5.00;3.63;;;;;;;;;;5143517;27;20468;-72
2023/10/21 07:24:25;;;;;;;4.30;3.23;;;;;;;;;;5133821;27;20459;-73
2023/10/21 07:26:53;;;;;;;3.53;2.80;;;;;;;;;;5149581;27;21026;-72
2023/10/21 07:29:22;;;;;;;3.63;3.00;;;;;;;;;;5140795;27;20563;-72
2023/10/21 07:31:49;;;;;;;2.83;2.10;;;;;;;;;;5141120;27;20481;-72
2023/10/21 07:34:16;;;;;;;3.77;2.20;;;;;;;;;;5160923;27;20487;-72
2023/10/21 07:36:43;;;;;;;2.73;2.37;;;;;;;;;;5152005;23;20797;-72
2023/10/21 07:39:10;;;;;;;3.10;2.80;;;;;;;;;;5069428;28;20481;-72
2023/10/21 07:41:37;;;;;;;3.57;2.83;;;;;;;;;;5071164;28;20597;-72
2023/10/21 07:44:06;;;;;;;4.03;3.60;;;;;;;;;;5071336;28;20515;-72
2023/10/21 07:46:33;;;;;;;3.43;2.27;;;;;;;;;;5071204;28;20971;-71
2023/10/21 07:49:01;;;;;;;2.60;2.30;;;;;;;;;;5087746;28;20446;-71
2023/10/21 07:51:30;;;;;;;2.07;1.70;;;;;;;;;;5056963;28;20468;-73
2023/10/21 07:53:59;;;;;;;2.80;1.60;;;;;;;;;;5075169;28;20799;-73
2023/10/21 07:56:27;;;;;;;1.90;1.53;;;;;;;;;;5074836;28;20525;-72
2023/10/21 07:58:55;;;;;;;3.10;1.70;;;;;;;;;;5066703;28;20776;-72
2023/10/21 08:01:24;;;;;;;2.20;1.93;;;;;;;;;;5066650;28;20523;-72
2023/10/21 08:03:51;;;;;;;2.80;1.60;;;;;;;;;;5075008;28;20448;-72
2023/10/21 08:06:19;;;;;;;2.20;1.70;;;;;;;;;;5067066;28;20455;-72
2023/10/21 08:08:48;;;;;;;5.50;1.60;;;;;;;;;;5082602;28;20451;-72
2023/10/21 08:11:15;;;;;;;2.60;1.97;;;;;;;;;;5083391;28;20514;-72
2023/10/21 08:13:43;;;;;;;1.60;1.50;;;;;;;;;;5074766;28;20527;-72
2023/10/21 08:16:11;;;;;;;1.70;1.50;;;;;;;;;;5072163;28;20547;-72
2023/10/21 08:18:45;;;;;;;1.80;1.50;;;;;;;;;;5069815;28;20447;-72
2023/10/21 08:21:13;;;;;;;2.20;1.50;;;;;;;;;;5066279;28;20486;-73
2023/10/21 08:23:42;;;;;;;2.00;1.57;;;;;;;;;;5074821;28;20463;-73
2023/10/21 08:26:09;;;;;;;1.80;1.40;;;;;;;;;;5066022;28;20522;-73
2023/10/21 08:28:36;;;;;;;2.30;2.07;;;;;;;;;;5074534;28;20542;-72
2023/10/21 08:31:03;;;;;;;2.10;1.80;;;;;;;;;;5082752;28;20474;-73
2023/10/21 08:33:31;;;;;;;2.07;1.60;;;;;;;;;;5079995;28;20862;-73
2023/10/21 08:35:59;;;;;;;2.00;1.50;;;;;;;;;;5077902;28;20455;-73
2023/10/21 08:38:26;;;;;;;6.17;4.90;;;;;;;;;;5063363;28;20467;-72
2023/10/21 08:40:54;;;;;;;2.87;2.40;;;;;;;;;;5074483;28;20809;-72
2023/10/21 08:43:22;;;;;;;1.70;1.50;;;;;;;;;;5060698;28;20450;-74
2023/10/21 08:45:50;;;;;;;1.70;1.50;;;;;;;;;;5086539;28;20456;-75
2023/10/21 08:48:17;;;;;;;1.80;1.33;;;;;;;;;;5062422;28;20456;-75
2023/10/21 08:50:48;;;;;;;1.77;1.30;;;;;;;;;;5069660;28;20559;-75
2023/10/21 08:53:17;;;;;;;1.87;1.53;;;;;;;;;;5074150;28;20487;-75
2023/10/21 08:55:45;;;;;;;2.07;1.40;;;;;;;;;;5073141;28;20823;-75
2023/10/21 08:58:12;;;;;;;1.70;1.10;;;;;;;;;;5091451;28;20455;-75
2023/10/21 09:00:41;;;;;;;1.30;1.00;;;;;;;;;;5073387;28;20451;-76
2023/10/21 09:03:09;;;;;;;1.50;1.20;;;;;;;;;;5067291;28;20463;-75
2023/10/21 09:05:37;;;;;;;3.57;1.20;;;;;;;;;;5088119;28;20585;-74
2023/10/21 09:08:04;;;;;;;1.70;1.20;;;;;;;;;;5083996;28;20862;-75
2023/10/21 09:10:35;;;;;;;1.30;1.10;;;;;;;;;;5080023;28;20800;-75
2023/10/21 09:13:13;;;;;;;1.70;1.33;;;;;;;;;;5073723;28;20463;-76
2023/10/21 09:15:41;;;;;;;1.47;1.20;;;;;;;;;;5067118;28;20457;-76
2023/10/21 09:18:10;;;;;;;3.03;1.20;;;;;;;;;;5072796;28;20456;-75
2023/10/21 09:20:39;;;;;;;1.50;1.20;;;;;;;;;;5073501;28;20460;-76
2023/10/21 09:23:08;;;;;;;3.40;1.90;;;;;;;;;;5073642;28;20451;-75
2023/10/21 09:25:38;;;;;;;2.70;1.47;;;;;;;;;;5065359;28;20443;-75
2023/10/21 09:28:05;;;;;;;2.60;2.10;;;;;;;;;;5054106;28;20463;-75
2023/10/21 09:30:33;;;;;;;6.60;1.93;;;;;;;;;;5078866;28;20466;-75
2023/10/21 09:33:05;;;;;;;1.37;1.00;;;;;;;;;;5084114;28;20956;-75
2023/10/21 09:35:32;;;;;;;1.50;1.10;;;;;;;;;;5073390;28;20448;-75
2023/10/21 09:38:15;;;;;;;3.33;1.10;;;;;;;;;;5073285;28;20456;-75
2023/10/21 09:40:46;;;;;;;2.37;1.30;;;;;;;;;;5080228;28;20451;-75
2023/10/21 09:43:13;;;;;;;1.43;1.00;;;;;;;;;;5082142;28;20530;-75
2023/10/21 09:45:41;;;;;;;1.40;1.00;;;;;;;;;;5073285;28;20790;-75
2023/10/21 09:48:12;;;;;;;1.50;1.20;;;;;;;;;;5073168;28;20980;-76
2023/10/21 09:50:39;;;;;;;1.37;0.90;;;;;;;;;;5072917;28;20514;-76
2023/10/21 09:53:11;;;;;;;1.73;1.23;;;;;;;;;;5074950;28;20451;-76
2023/10/21 09:55:39;;;;;;;4.87;1.80;;;;;;;;;;5078634;28;20447;-75
2023/10/21 09:58:09;;;;;;;4.30;1.10;;;;;;;;;;5070946;28;20538;-75
2023/10/21 10:00:37;;;;;;;2.67;2.07;;;;;;;;;;5067203;28;20491;-75
2023/10/21 10:03:06;;;;;;;20.53;18.80;;;;;;;;;;5064303;28;20467;-75
2023/10/21 10:05:34;;;;;;;1.40;1.20;;;;;;;;;;5067112;28;20536;-75
2023/10/21 10:08:01;;;;;;;1.60;1.10;;;;;;;;;;5070536;28;20475;-76
2023/10/21 10:10:28;;;;;;;1.50;1.20;;;;;;;;;;5069295;28;20452;-75
2023/10/21 10:12:58;;;;;;;2.13;1.40;;;;;;;;;;5074911;28;20448;-76
2023/10/21 10:15:32;;;;;;;3.03;1.13;;;;;;;;;;5065495;28;20483;-76
2023/10/21 10:17:59;;;;;;;2.63;1.00;;;;;;;;;;5080986;28;20451;-76
2023/10/21 10:20:27;;;;;;;1.50;1.10;;;;;;;;;;5072458;28;20455;-76
2023/10/21 10:23:00;;;;;;;1.47;1.20;;;;;;;;;;5071914;28;20543;-76
2023/10/21 10:25:28;;;;;;;2.23;1.20;;;;;;;;;;5065547;28;20448;-75
2023/10/21 10:27:59;;;;;;;1.90;1.00;;;;;;;;;;5064310;28;20506;-75
2023/10/21 10:30:31;;;;;;;2.07;1.20;;;;;;;;;;5051777;28;20455;-76
2023/10/21 10:33:06;;;;;;;8.87;2.03;;;;;;;;;;5062508;28;20491;-75
2023/10/21 10:35:37;;;;;;;2.03;1.60;;;;;;;;;;5070570;28;20533;-76
2023/10/21 10:38:05;;;;;;;2.80;1.17;;;;;;;;;;5070632;28;20554;-76
2023/10/21 10:40:34;;;;;;;1.80;1.43;;;;;;;;;;5065228;28;20971;-75
2023/10/21 10:43:03;;;;;;;1.90;1.30;;;;;;;;;;5060262;28;20457;-76
2023/10/21 10:45:30;;;;;;;2.50;1.30;;;;;;;;;;5075983;28;20534;-76
2023/10/21 10:48:02;;;;;;;2.13;1.30;;;;;;;;;;5073445;28;20806;-76
2023/10/21 10:50:29;;;;;;;2.13;1.30;;;;;;;;;;5070471;28;21214;-76
2023/10/21 10:52:56;;;;;;;1.67;1.13;;;;;;;;;;5071022;28;20459;-75
2023/10/21 10:55:24;;;;;;;1.63;1.30;;;;;;;;;;5078073;28;20491;-76
2023/10/21 10:57:52;;;;;;;1.60;1.30;;;;;;;;;;5078862;28;20508;-76
2023/10/21 11:00:25;;;;;;;1.30;0.97;;;;;;;;;;5059444;28;20467;-76
2023/10/21 11:02:53;;;;;;;3.33;1.13;;;;;;;;;;5068498;28;20567;-74
2023/10/21 11:05:22;;;;;;;1.83;1.57;;;;;;;;;;5079562;28;20447;-74
2023/10/21 11:07:49;;;;;;;1.57;1.20;;;;;;;;;;5063346;28;21032;-74
2023/10/21 11:10:20;;;;;;;3.00;1.20;;;;;;;;;;5079549;28;20864;-74
2023/10/21 11:12:48;;;;;;;1.50;1.20;;;;;;;;;;5079913;28;20550;-74
2023/10/21 11:15:16;;;;;;;1.80;1.20;;;;;;;;;;5070919;28;20484;-74
2023/10/21 11:17:46;;;;;;;2.50;1.10;;;;;;;;;;5071418;28;20969;-75
2023/10/21 11:20:14;;;;;;;1.80;1.10;;;;;;;;;;5079907;28;20460;-74
2023/10/21 11:22:45;;;;;;;2.20;1.10;;;;;;;;;;5071737;28;21015;-74
2023/10/21 11:25:16;;;;;;;4.13;1.50;;;;;;;;;;5062693;28;20460;-73
2023/10/21 11:27:43;;;;;;;2.27;1.20;;;;;;;;;;5071826;28;20479;-73
2023/10/21 11:30:10;;;;;;;2.43;1.20;;;;;;;;;;5063250;28;20448;-73
2023/10/21 11:32:38;;;;;;;2.47;1.80;;;;;;;;;;5065343;28;20472;-73
2023/10/21 11:35:09;;;;;;;1.93;1.10;;;;;;;;;;5078002;28;20497;-73
2023/10/21 11:37:38;;;;;;;1.33;1.00;;;;;;;;;;5071542;28;20465;-73
2023/10/21 11:40:09;;;;;;;1.93;1.00;;;;;;;;;;5079857;28;20454;-74
2023/10/21 11:42:38;;;;;;;1.30;0.93;;;;;;;;;;5071306;28;20638;-73
2023/10/21 11:45:09;;;;;;;1.80;1.00;;;;;;;;;;5063073;28;20493;-74
2023/10/21 11:47:39;;;;;;;2.97;1.70;;;;;;;;;;5063184;28;20823;-74
2023/10/21 11:50:10;;;;;;;2.10;1.90;;;;;;;;;;5079390;28;20491;-74
2023/10/21 11:52:38;;;;;;;1.77;1.00;;;;;;;;;;5071377;28;20464;-74
2023/10/21 11:55:38;;;;;;;2.53;2.20;;;;;;;;;;5071625;28;20491;-74
2023/10/21 12:04:17;;;;;;;2.33;1.20;;;;;;;;;;5065273;28;20432;-74
2023/10/21 12:39:46;;;;;;;1.80;1.00;;;;;;;;;;5067266;28;20461;-75
2023/10/21 12:42:21;;;;;;;4.90;1.97;;;;;;;;;;5068519;28;20502;-75
2023/10/21 12:44:57;;;;;;;1.70;1.10;;;;;;;;;;5060783;28;20496;-75
2023/10/21 12:47:24;;;;;;;1.40;1.10;;;;;;;;;;5071507;28;21015;-75
2023/10/21 12:49:55;;;;;;;1.80;1.20;;;;;;;;;;5077931;28;20454;-75
2023/10/21 12:52:23;;;;;;;6.43;4.17;;;;;;;;;;5082511;28;20529;-75
2023/10/21 12:54:51;;;;;;;1.77;1.30;;;;;;;;;;5082401;28;20502;-75
2023/10/21 12:57:20;;;;;;;1.30;1.00;;;;;;;;;;5082530;28;20439;-75
2023/10/21 12:59:47;;;;;;;2.20;1.07;;;;;;;;;;5074255;28;20462;-75
2023/10/21 13:02:16;;;;;;;1.57;1.00;;;;;;;;;;5068743;28;20477;-75
2023/10/21 13:04:43;;;;;;;2.53;1.30;;;;;;;;;;5078738;28;20443;-75
2023/10/21 13:07:13;;;;;;;1.40;1.00;;;;;;;;;;5076688;28;20447;-75
2023/10/21 13:09:42;;;;;;;3.70;1.20;;;;;;;;;;5093991;28;20443;-75
2023/10/21 13:12:15;;;;;;;1.97;1.13;;;;;;;;;;5074896;28;20594;-75
2023/10/21 13:14:44;;;;;;;1.90;1.00;;;;;;;;;;5073866;28;20565;-75
2023/10/21 13:17:12;;;;;;;1.60;1.00;;;;;;;;;;5071488;28;20463;-75
2023/10/21 13:19:42;;;;;;;2.20;1.00;;;;;;;;;;5074953;28;20466;-74
2023/10/21 13:22:09;;;;;;;2.73;1.30;;;;;;;;;;5082745;28;20522;-75
2023/10/21 13:24:37;;;;;;;1.93;1.10;;;;;;;;;;5073220;28;20440;-75
2023/10/21 13:27:05;;;;;;;1.60;1.30;;;;;;;;;;5081989;28;20455;-75
2023/10/21 13:29:33;;;;;;;1.90;1.30;;;;;;;;;;5073332;28;20478;-74
2023/10/21 13:32:00;;;;;;;2.37;1.27;;;;;;;;;;5064797;28;20496;-75
2023/10/21 13:34:27;;;;;;;1.80;1.30;;;;;;;;;;5078353;28;20540;-75
2023/10/21 13:36:57;;;;;;;2.60;1.30;;;;;;;;;;5076651;28;20456;-75
2023/10/21 13:39:28;;;;;;;1.63;1.00;;;;;;;;;;5073331;28;20455;-74
2023/10/21 13:41:55;;;;;;;2.60;1.27;;;;;;;;;;5073014;28;20475;-74
2023/10/21 13:44:23;;;;;;;2.47;1.40;;;;;;;;;;5063025;28;20455;-74
2023/10/21 13:46:50;;;;;;;1.80;1.37;;;;;;;;;;5085467;28;20466;-74
2023/10/21 13:49:17;;;;;;;2.43;2.03;;;;;;;;;;5069331;28;20903;-74
2023/10/21 13:51:45;;;;;;;2.23;1.57;;;;;;;;;;5068342;28;20614;-74
2023/10/21 13:54:13;;;;;;;2.10;1.30;;;;;;;;;;5071098;28;20475;-74
2023/10/21 13:56:41;;;;;;;2.43;1.30;;;;;;;;;;5065995;28;20451;-74
2023/10/21 13:59:12;;;;;;;1.97;1.50;;;;;;;;;;5079694;28;20568;-73
2023/10/21 14:01:41;;;;;;;4.70;1.47;;;;;;;;;;5064718;28;20843;-73
2023/10/21 14:04:09;;;;;;;1.63;1.30;;;;;;;;;;5081142;28;20450;-74
2023/10/21 14:06:36;;;;;;;2.47;1.57;;;;;;;;;;5072380;28;20431;-74
2023/10/21 14:09:04;;;;;;;2.70;1.60;;;;;;;;;;5082172;28;20454;-74
2023/10/21 14:11:35;;;;;;;1.93;1.67;;;;;;;;;;5087439;28;20566;-74
2023/10/21 14:14:02;;;;;;;1.97;1.50;;;;;;;;;;5071420;28;20945;-74
2023/10/21 14:16:30;;;;;;;2.50;1.80;;;;;;;;;;5065930;28;20497;-74
2023/10/21 14:19:00;;;;;;;2.70;2.00;;;;;;;;;;5072274;28;20452;-74
2023/10/21 14:21:27;;;;;;;2.40;1.50;;;;;;;;;;5072484;28;21005;-74
2023/10/21 14:23:55;;;;;;;3.27;2.37;;;;;;;;;;5064082;28;20453;-74
2023/10/21 14:26:23;;;;;;;2.53;1.70;;;;;;;;;;5092838;28;20457;-74
2023/10/21 14:28:55;;;;;;;1.93;1.70;;;;;;;;;;5076497;28;20563;-73
2023/10/21 14:31:25;;;;;;;3.63;1.70;;;;;;;;;;5080619;28;20482;-73
2023/10/21 14:33:53;;;;;;;3.93;1.43;;;;;;;;;;5072374;28;20484;-73
2023/10/21 14:36:20;;;;;;;2.00;1.80;;;;;;;;;;5064023;28;20503;-73
2023/10/21 14:38:47;;;;;;;2.20;1.77;;;;;;;;;;5063827;28;20459;-73
2023/10/21 14:41:14;;;;;;;1.90;1.30;;;;;;;;;;5068789;28;20477;-73
2023/10/21 14:43:42;;;;;;;1.73;1.60;;;;;;;;;;5067159;28;20467;-73
2023/10/21 14:46:11;;;;;;;4.43;1.63;;;;;;;;;;5063855;28;20451;-73
2023/10/21 14:48:41;;;;;;;3.50;1.67;;;;;;;;;;5080240;28;20459;-73
2023/10/21 14:51:08;;;;;;;2.53;1.50;;;;;;;;;;5080198;28;20479;-73
2023/10/21 14:53:35;;;;;;;5.00;1.73;;;;;;;;;;5071897;28;20448;-73
2023/10/21 14:56:03;;;;;;;2.03;1.53;;;;;;;;;;5071648;28;20556;-74
2023/10/21 14:58:30;;;;;;;2.70;1.40;;;;;;;;;;5063185;28;20853;-73
2023/10/21 15:00:57;;;;;;;1.70;1.27;;;;;;;;;;5071179;28;20832;-73
2023/10/21 15:03:26;;;;;;;3.20;1.70;;;;;;;;;;5071789;28;20460;-73
2023/10/21 15:05:54;;;;;;;2.63;1.60;;;;;;;;;;5063628;28;20455;-73
2023/10/21 15:08:23;;;;;;;3.37;1.50;;;;;;;;;;5063282;28;20501;-73
2023/10/21 15:10:50;;;;;;;3.50;1.83;;;;;;;;;;5071885;28;20876;-73
2023/10/21 15:13:18;;;;;;;3.00;1.50;;;;;;;;;;5071619;28;20494;-73
2023/10/21 15:15:48;;;;;;;1.97;1.60;;;;;;;;;;5064393;28;20869;-73
2023/10/21 15:18:15;;;;;;;2.73;1.60;;;;;;;;;;5071084;28;20459;-73
2023/10/21 15:20:44;;;;;;;5.23;1.60;;;;;;;;;;5079786;28;20495;-73
2023/10/21 15:23:11;;;;;;;1.50;1.23;;;;;;;;;;5079800;28;20488;-73
2023/10/21 15:25:40;;;;;;;4.03;1.50;;;;;;;;;;5071085;28;20562;-73